Date,TemperatureHighF,TemperatureAvgF,TemperatureLowF,DewpointHighF,DewpointAvgF,DewpointLowF,HumidityHigh,HumidityAvg,HumidityLow,PressureMaxIn,PressureMinIn,WindSpeedMaxMPH,WindSpeedAvgMPH,GustSpeedMaxMPH,PrecipitationSumIn
2014-1-1,17,7,0,2,-8,-22,58,48,19,31.04,30.95,4,2,11,0.00
2014-1-2,15,7,-7,-1,-10,-22,62,46,24,31.11,30.91,4,2,15,0.00
2014-1-3,16,5,-14,4,-13,-22,58,41,19,31.11,30.53,11,4,20,0.00
2014-1-4,30,24,16,22,12,2,79,62,49,30.77,30.43,12,4,22,0.00
2014-1-5,18,6,-9,2,-14,-22,49,31,19,30.85,30.73,7,3,17,0.00
2014-1-6,-6,-15,-19,-22,-22,-22,30,19,19,30.87,30.72,10,2,17,0.00
2014-1-7,0,-10,-20,-22,-22,-22,40,23,19,30.98,30.84,4,1,10,0.00
2014-1-8,14,-2,-12,-3,-20,-22,55,32,19,31.20,30.97,2,0,9,0.00
2014-1-9,23,7,-16,15,-6,-21,74,48,19,31.21,30.83,4,0,12,0.00
2014-1-10,38,30,22,37,27,15,96,88,74,30.84,30.21,6,1,14,0.14
2014-1-11,37,33,29,36,28,21,96,84,68,30.47,30.13,3,1,12,0.00
2014-1-12,42,34,24,29,23,18,83,66,41,30.51,30.28,11,3,22,0.00
2014-1-13,50,35,21,33,25,12,81,67,43,30.46,30.24,4,0,12,0.00
2014-1-14,34,25,17,29,17,8,82,71,55,30.58,30.25,8,3,23,0.00
2014-1-15,25,14,7,12,-4,-16,71,48,19,30.76,30.45,7,2,13,0.00
2014-1-16,33,25,14,27,14,-1,82,65,52,30.45,30.16,10,3,20,0.00
2014-1-17,24,14,3,6,-2,-13,60,49,19,30.64,30.40,4,0,11,0.00
2014-1-18,20,12,3,6,-1,-10,63,55,43,30.62,30.49,2,0,7,0.00
2014-1-19,34,23,5,22,10,-6,71,59,40,30.52,30.21,6,2,13,0.00
2014-1-20,32,18,3,21,5,-22,70,56,19,30.88,30.31,8,2,18,0.00
2014-1-21,9,0,-7,-17,-21,-22,42,24,19,31.02,30.86,6,2,17,0.00
2014-1-22,17,3,-5,-4,-17,-22,50,35,19,30.86,30.56,6,2,16,0.00
2014-1-23,9,-1,-10,-16,-22,-22,41,24,19,31.24,30.85,6,2,15,0.00
2014-1-24,27,9,-12,21,-10,-22,79,39,19,31.15,30.10,12,6,22,0.00
2014-1-25,29,13,-1,24,-6,-12,81,30,19,30.55,30.09,10,3,21,0.00
2014-1-26,25,11,2,8,-5,-22,61,44,19,30.49,30.07,8,2,24,0.00
2014-1-27,2,-6,-17,-20,-22,-22,35,21,19,31.07,30.49,12,2,18,0.00
2014-1-28,6,-7,-19,-18,-22,-22,43,20,19,31.07,30.85,4,1,12,0.00
2014-1-29,20,9,-7,-7,-19,-22,41,27,19,30.85,30.61,7,3,15,0.00
2014-1-30,29,24,18,22,2,-17,74,45,19,30.64,30.31,11,5,21,0.00
2014-1-31,24,13,6,4,-12,-21,53,33,19,30.85,30.63,3,0,13,0.00
2014-2-1,28,17,9,12,3,-8,64,55,44,30.80,30.62,3,0,9,0.00
2014-2-2,25,11,-2,10,-10,-22,60,34,19,31.01,30.79,4,1,12,0.00
2014-2-3,31,8,-11,7,-13,-22,58,29,19,31.06,30.99,3,0,7,0.00
2014-2-4,25,13,1,8,-10,-22,62,38,19,31.12,30.87,3,0,10,0.00
2014-2-5,22,15,4,11,-3,-19,70,46,19,31.11,30.82,6,2,16,0.00
2014-2-6,15,2,-6,-10,-18,-22,50,30,19,31.10,30.99,3,1,10,0.00
2014-2-7,17,3,-7,-10,-20,-22,51,31,19,31.02,30.95,5,1,14,0.00
2014-2-8,22,8,-5,4,-11,-22,60,40,19,30.99,30.82,2,0,6,0.00
2014-2-9,24,11,-1,5,-12,-22,62,33,19,30.98,30.80,4,1,12,0.00
2014-2-10,16,1,-10,-15,-22,-22,42,20,19,31.15,30.98,5,1,12,0.00
2014-2-11,28,4,-12,-5,-17,-22,50,23,19,31.19,31.04,2,0,8,0.00
2014-2-12,0,-2,-4,-15,-17,-22,43,31,19,31.04,30.97,3,1,8,0.00
2014-3-5,20,14,8,-2,-10,-20,60,38,19,31.18,31.15,9,3,9,0.49
2014-3-6,11,10,9,0,-1,-2,62,61,61,31.16,31.15,0,0,0,0.00
2014-3-7,52,42,20,25,16,4,73,37,19,30.74,30.56,6,2,12,0.04
2014-3-8,37,28,16,21,6,-8,68,44,19,30.95,30.74,5,1,11,0.00
2014-3-9,42,29,12,29,9,-4,72,48,19,30.94,30.46,9,3,16,0.00
2014-3-10,63,48,35,33,26,21,75,47,19,30.47,30.32,4,1,10,0.00
2014-3-11,52,41,33,33,29,20,84,62,39,30.55,30.40,8,1,15,0.08
2014-3-12,33,23,8,20,1,-8,58,33,19,30.83,30.51,7,2,16,0.00
2014-3-13,36,23,3,28,6,-21,83,50,19,30.83,30.50,8,3,18,0.00
2014-3-14,58,46,33,31,24,15,85,48,19,30.50,30.26,7,3,22,0.00
2014-4-15,42,31,24,12,1,-8,60,31,19,30.93,30.83,8,0,8,0.00
2014-4-16,40,25,22,22,16,11,73,66,46,31.01,30.93,1,0,8,0.00
2014-4-17,62,50,39,32,26,20,62,43,29,30.98,30.79,8,2,8,0.00
2014-4-18,62,43,32,31,23,16,79,49,19,31.11,30.99,8,2,8,0.00
2014-4-19,40,34,31,25,21,19,68,60,54,31.13,31.10,6,2,8,0.00
2014-4-22,35,35,35,22,22,22,60,60,59,30.83,30.83,0,0,0,0.00
2014-4-23,53,42,26,34,11,-4,86,37,19,30.91,30.79,9,1,9,0.00
2014-4-24,57,48,35,32,22,-6,76,40,19,30.84,30.44,11,3,16,0.10
2014-4-25,73,55,42,41,32,16,89,47,19,30.57,30.41,4,1,17,0.08
2014-4-26,56,46,38,32,26,20,61,46,26,30.80,30.56,7,3,12,0.00
2014-4-29,50,49,47,48,46,44,91,90,88,30.40,30.38,1,0,6,0.33
2014-4-30,60,49,42,47,40,31,91,70,47,30.50,30.39,5,1,10,0.00
2014-5-1,53,45,39,43,38,34,89,76,55,30.52,30.38,3,0,8,0.04
2014-5-2,56,49,45,44,40,34,90,72,47,30.52,30.38,3,0,8,0.00
2014-5-3,68,55,43,49,33,18,96,50,19,30.59,30.35,7,2,25,0.00
2014-5-4,63,52,40,31,21,12,54,33,19,30.84,30.59,5,2,12,0.00
2014-5-5,55,46,40,31,28,19,68,51,25,30.81,30.69,7,3,13,0.00
2014-5-6,59,49,37,33,29,23,75,48,32,30.80,30.66,8,4,17,0.00
2014-5-7,59,52,45,47,39,30,78,60,44,30.67,30.56,9,5,17,0.00
2014-5-8,91,72,48,56,49,44,91,50,22,30.58,30.46,8,2,16,0.00
2014-5-9,76,66,50,65,48,36,87,55,25,30.59,30.37,8,3,18,0.02
2014-5-10,81,63,42,50,35,29,92,43,19,30.72,30.59,3,0,11,0.00
2014-5-11,92,71,53,61,44,32,82,44,19,30.70,30.61,5,1,12,0.16
2014-5-12,83,68,57,68,61,51,96,81,45,30.69,30.53,6,1,19,3.06
2014-5-13,67,60,52,64,51,35,96,74,54,30.87,30.48,4,1,10,0.06
2014-5-14,63,52,42,40,34,26,79,53,28,30.93,30.76,3,0,9,0.00
2014-5-15,57,45,38,41,31,23,91,63,29,30.81,30.70,6,2,16,0.20
2014-5-16,57,45,36,34,27,15,78,55,19,30.80,30.75,2,0,6,0.00
2014-5-17,69,62,48,28,24,14,47,23,19,30.87,30.80,3,0,12,0.00
2014-5-18,79,63,44,33,26,21,54,30,19,30.92,30.85,5,1,11,0.00
2014-5-19,74,59,46,47,35,28,79,45,19,30.95,30.66,6,2,14,0.10
2014-5-20,95,73,55,56,50,41,81,49,19,30.69,30.55,4,1,8,0.00
2014-5-21,94,75,57,59,49,31,96,46,19,30.73,30.55,4,1,14,0.00
2014-5-22,80,66,51,47,38,31,74,40,19,30.87,30.73,2,0,8,0.00
2014-5-23,76,62,47,50,35,21,91,43,19,30.96,30.87,5,1,10,0.00
2014-5-24,80,64,42,46,34,30,84,37,19,30.99,30.87,2,0,8,0.00
2014-5-25,91,72,48,48,39,34,80,35,19,30.90,30.74,4,0,10,0.00
2014-5-26,96,75,61,64,54,39,84,51,22,30.77,30.65,3,0,9,0.00
2014-5-27,94,70,58,73,60,52,96,75,27,30.73,30.64,5,0,9,0.24
2014-5-28,75,61,53,56,42,36,96,51,28,30.83,30.69,5,1,11,0.08
2014-5-29,83,66,51,50,45,37,81,49,22,30.90,30.81,4,1,8,0.00
2014-5-30,86,69,51,50,43,32,81,43,19,30.95,30.86,4,1,9,0.00
2014-5-31,94,75,53,55,45,37,85,39,19,30.94,30.80,5,1,10,0.00
2014-6-1,97,77,62,66,53,42,90,49,19,30.82,30.59,5,1,16,0.57
2014-6-2,89,76,69,69,61,51,92,63,29,30.64,30.49,5,1,16,0.14
2014-6-3,85,74,63,60,45,35,74,40,19,30.71,30.53,3,1,12,0.00
2014-6-4,66,63,61,57,52,48,85,69,56,30.66,30.57,2,0,7,0.10
2014-6-5,63,62,62,36,35,34,38,37,36,30.70,30.69,0,0,0,0.00
2014-6-6,93,76,56,53,41,31,67,32,19,30.76,30.67,2,0,8,0.00
2014-6-7,95,74,54,57,44,36,72,38,19,30.76,30.61,3,0,9,0.00
2014-6-8,75,65,56,55,40,22,75,43,19,30.80,30.64,5,1,12,0.00
2014-6-9,76,64,51,48,39,31,49,39,27,30.80,30.69,5,1,10,0.00
2014-6-10,69,61,54,51,44,34,75,54,42,30.73,30.58,3,0,9,0.02
2014-6-11,62,59,56,60,57,50,96,95,76,30.59,30.46,7,1,14,0.65
2014-6-12,89,72,59,70,52,38,96,57,23,30.60,30.48,2,0,10,0.00
2014-6-13,84,65,52,42,33,23,67,33,19,30.77,30.60,3,1,12,0.00
2014-6-14,86,66,47,50,37,29,80,40,19,30.85,30.70,5,1,12,0.00
2014-6-15,92,74,59,55,47,36,60,40,25,30.71,30.52,6,2,14,0.00
2014-6-16,99,82,60,64,52,45,89,41,19,30.79,30.62,3,0,9,0.00
2014-6-17,93,79,66,69,60,52,96,57,26,30.70,30.48,6,0,18,0.77
2014-6-18,81,69,62,65,61,55,96,78,46,30.79,30.60,6,1,16,1.02
2014-6-19,74,66,62,64,60,58,96,81,61,30.88,30.77,5,2,11,0.33
2014-6-20,88,69,60,71,61,53,96,80,39,30.77,30.67,5,0,9,0.20
2014-6-21,77,66,59,65,60,43,96,82,54,30.74,30.60,2,0,8,0.00
2014-6-22,91,71,61,64,59,55,96,72,30,30.71,30.60,1,0,7,0.00
2014-6-23,88,72,60,69,60,56,96,70,36,30.64,30.55,2,0,6,0.10
2014-6-24,94,78,66,74,61,52,96,62,27,30.68,30.59,4,0,8,0.08
2014-6-25,75,67,55,63,56,51,88,69,54,30.80,30.67,4,0,8,0.00
2014-6-26,76,60,53,59,54,50,96,83,46,30.85,30.78,1,0,6,0.00
2014-6-27,90,82,59,62,59,54,89,47,34,30.80,30.70,5,2,11,0.00
2014-6-28,94,78,69,67,63,54,85,64,31,30.77,30.65,2,0,8,0.08
2014-6-29,93,85,74,67,60,56,77,45,32,30.69,30.57,5,2,10,0.22
2014-6-30,88,76,69,70,63,58,86,65,42,30.65,30.52,3,1,12,0.04
2014-9-26,80,68,58,49,46,41,71,50,29,30.99,30.96,3,0,3,8.85
2014-9-27,86,68,54,64,48,41,96,57,25,31.01,30.92,4,0,4,0.00
2014-9-28,87,71,50,62,45,32,96,45,19,30.93,30.80,2,0,7,0.00
2014-9-29,90,64,50,66,51,44,96,70,23,30.80,30.72,1,0,8,0.00
2014-9-30,60,53,49,46,40,35,88,63,42,30.82,30.75,4,0,8,0.00
2014-10-1,69,57,50,52,48,42,93,74,39,30.77,30.63,3,0,8,0.00
2014-10-2,83,71,62,63,59,48,92,69,41,30.63,30.35,2,0,8,0.12
2014-10-3,64,56,42,62,51,26,96,84,51,30.47,30.21,6,1,18,0.57
2014-10-4,47,45,40,40,34,25,77,66,53,30.46,30.36,3,1,11,0.00
2014-10-5,60,50,28,43,25,15,92,43,19,30.44,30.33,3,0,10,0.00
2014-10-6,66,51,42,43,31,19,79,51,19,30.36,30.29,3,0,9,0.00
2014-10-7,69,55,43,45,36,31,82,51,28,30.56,30.33,2,0,9,0.00
2014-10-8,66,52,35,46,28,21,90,46,19,30.76,30.56,4,1,17,0.00
2014-10-9,61,48,35,41,23,12,80,41,19,30.88,30.76,3,0,10,0.00
2014-10-10,62,46,34,39,25,13,84,49,19,30.95,30.86,2,0,8,0.00
2014-10-11,69,48,30,47,28,15,92,51,19,31.00,30.88,1,0,7,0.00
2014-10-12,62,50,36,50,36,28,91,62,31,30.88,30.61,5,1,10,0.02
2014-10-13,66,59,53,64,56,50,96,91,61,30.62,30.27,6,1,12,0.90
2014-10-14,65,58,50,64,56,49,96,93,79,30.44,30.22,6,1,16,0.22
2014-10-15,56,52,50,53,50,49,96,94,87,30.61,30.42,1,0,9,0.16
2014-10-16,61,53,50,55,50,46,96,89,62,30.59,30.36,1,0,6,0.04
2014-10-17,65,52,45,58,45,37,96,79,49,30.62,30.27,4,1,17,0.02
2014-10-18,50,43,30,40,34,25,85,69,46,30.93,30.62,2,0,12,0.12
2014-10-19,59,45,29,49,34,25,96,68,38,30.92,30.57,6,1,14,0.00
2014-10-20,65,52,42,49,40,37,91,64,40,30.75,30.52,3,1,12,0.00
2014-10-21,52,46,32,39,34,27,81,63,45,31.01,30.75,1,0,10,0.00
2014-10-22,58,43,28,48,32,23,96,69,38,31.10,30.98,2,0,7,0.00
2014-10-23,62,48,33,49,38,30,96,72,36,30.98,30.77,3,0,8,0.06
2014-10-24,64,55,50,52,48,44,96,79,54,30.80,30.63,1,0,7,0.00
2014-10-25,70,59,47,58,36,14,96,48,19,30.71,30.60,4,1,16,0.00
2014-10-26,67,53,34,35,24,17,63,35,19,30.77,30.60,1,0,7,0.00
2014-10-27,78,65,52,53,45,32,60,50,38,30.60,30.28,5,2,10,0.00
2014-10-28,66,55,44,53,35,24,66,48,26,30.65,30.32,4,1,15,0.00
2014-10-29,52,44,32,33,26,23,71,50,34,30.86,30.63,3,1,11,0.00
2014-10-30,57,42,29,42,28,22,90,62,32,30.86,30.75,2,0,10,0.00
2014-10-31,44,36,33,34,14,-4,84,43,19,31.13,30.76,8,4,23,0.00
2014-11-1,45,35,24,21,16,9,69,46,31,31.19,31.10,3,1,12,0.00
2014-11-2,54,40,23,36,17,12,87,45,19,31.11,30.85,6,2,13,0.00
2014-11-3,62,52,37,42,26,6,60,38,19,30.85,30.59,6,2,14,0.02
2014-11-4,56,49,40,55,40,16,96,72,47,30.74,30.52,6,2,14,0.10
2014-11-5,60,46,32,45,32,25,89,62,31,30.85,30.52,2,0,8,0.00
2014-11-6,47,39,33,41,29,16,89,68,47,30.95,30.48,7,3,22,0.06
2014-11-7,53,38,25,35,19,6,82,48,19,30.93,30.49,3,1,10,0.00
2014-11-8,47,39,32,35,23,3,81,53,19,30.67,30.42,6,1,15,0.02
2014-11-9,53,42,32,32,25,18,82,53,29,30.65,30.45,9,1,19,0.04
2014-11-10,56,47,35,43,38,30,93,71,51,30.58,30.24,6,2,11,0.00
2014-11-11,53,36,27,41,28,10,89,72,49,30.84,30.30,5,2,16,0.31
2014-11-12,36,25,17,18,5,-9,66,44,19,30.99,30.84,4,0,10,0.00
2014-11-13,29,24,18,10,4,-8,54,43,19,31.01,30.95,3,1,13,0.00
2014-11-14,30,20,11,14,1,-12,73,45,19,31.06,30.99,2,0,8,0.00
2014-11-15,34,21,6,24,3,-10,74,48,19,31.07,30.90,2,0,8,0.00
2014-11-16,33,23,10,24,13,-4,76,65,53,30.90,30.59,4,1,9,0.02
2014-11-17,20,10,2,6,-6,-18,68,49,19,30.62,30.50,3,1,13,0.00
2014-11-18,20,12,4,3,-7,-18,60,43,19,30.78,30.60,4,1,12,0.00
2014-11-19,30,20,13,13,2,-4,62,47,32,30.72,30.44,6,1,16,0.00
2014-11-20,26,16,6,13,-5,-10,70,35,19,31.03,30.65,5,1,15,0.00
2014-11-21,32,19,0,7,-9,-22,61,27,19,31.14,30.82,6,2,13,0.00
2014-11-22,50,40,31,48,35,-7,96,84,19,30.83,30.52,6,2,13,0.00
2014-11-23,51,50,48,49,47,44,96,92,75,30.53,29.84,6,2,15,0.53
2014-11-24,48,35,21,47,34,18,96,94,89,30.49,29.80,3,0,15,0.18
2014-11-25,31,21,13,19,13,4,88,72,54,30.90,30.49,0,0,0,0.00
2014-11-26,35,20,6,27,10,-4,86,66,48,30.93,30.84,0,0,0,0.00
2014-11-27,23,17,6,15,6,-6,79,62,46,31.12,30.92,0,0,0,0.00
2014-11-28,29,21,9,24,10,-2,81,63,44,31.07,30.57,2,0,8,0.02
2014-11-29,46,38,28,44,33,23,96,82,59,30.58,30.26,6,2,12,0.02
2014-11-30,43,32,16,42,25,-2,96,77,43,31.06,30.32,5,2,14,0.00
2014-12-1,16,12,8,-3,-18,-22,42,24,19,31.38,31.06,6,2,20,0.00
2014-12-2,36,26,13,21,11,-6,77,55,32,31.25,30.73,4,1,9,0.00
2014-12-3,34,25,19,23,5,-10,75,46,19,31.07,30.72,4,1,13,0.00
2014-12-4,32,25,16,20,6,-13,66,47,19,31.15,30.97,3,0,9,0.00
2014-12-5,42,34,30,27,24,20,85,64,54,30.99,30.88,2,0,7,0.00
2014-12-6,38,30,22,28,19,12,88,66,41,31.38,30.99,4,1,11,0.00
2014-12-7,37,30,20,24,18,9,80,63,32,31.37,30.97,5,1,10,0.00
2014-12-8,35,33,30,33,29,19,94,84,60,30.98,30.68,3,0,8,0.06
2014-12-9,37,32,26,33,25,17,96,77,61,31.13,30.81,3,1,13,0.02
2014-12-10,31,26,22,19,16,13,70,66,59,31.14,30.98,2,0,8,0.00
2014-12-11,32,23,19,18,14,12,77,68,53,30.99,30.91,2,0,8,0.00
2014-12-12,36,30,20,32,26,14,92,84,76,31.01,30.91,2,0,11,0.00
2014-12-13,43,39,32,42,37,30,96,92,86,30.93,30.77,2,0,9,0.00
2014-12-14,50,46,42,48,45,41,96,95,90,30.80,30.70,3,0,9,0.00
2014-12-15,48,44,40,47,44,39,96,96,96,30.70,30.41,4,1,12,0.02
2014-12-16,41,40,40,40,39,39,96,96,96,30.41,30.39,0,0,0,0.00